createdAt,value
2022-08-25T00:01:43.832Z,96.58
2022-08-25T00:04:15.509Z,96.59
2022-08-25T00:06:43.383Z,96.87
2022-08-25T00:09:12.890Z,97.37
2022-08-25T00:11:40.316Z,97.60
2022-08-25T00:14:10.802Z,97.51
2022-08-25T00:16:37.900Z,97.66
2022-08-25T00:19:09.378Z,97.47
2022-08-25T00:21:35.990Z,97.60
2022-08-25T00:24:04.310Z,97.53
2022-08-25T00:26:31.475Z,97.89
2022-08-25T00:29:01.808Z,97.42
2022-08-25T00:31:37.741Z,97.86
2022-08-25T00:34:09.720Z,98.17
2022-08-25T00:36:36.775Z,98.40
2022-08-25T00:39:04.634Z,98.14
2022-08-25T00:41:31.355Z,98.32
2022-08-25T00:44:00.654Z,97.72
2022-08-25T00:46:37.420Z,98.22
2022-08-25T00:49:20.955Z,98.52
2022-08-25T00:52:04.195Z,98.35
2022-08-25T00:54:39.342Z,98.26
2022-08-25T00:57:09.011Z,98.54
2022-08-25T00:59:36.572Z,98.30
2022-08-25T01:02:05.882Z,98.14
2022-08-25T01:04:36.704Z,98.18
2022-08-25T01:07:04.450Z,98.10
2022-08-25T01:09:33.024Z,98.12
2022-08-25T01:12:00.891Z,98.33
2022-08-25T01:14:31.488Z,98.30
2022-08-25T01:16:59.454Z,98.26
2022-08-25T01:19:28.823Z,98.23
2022-08-25T01:24:51.695Z,98.52
2022-08-25T01:27:18.306Z,98.40
2022-08-25T01:29:46.039Z,98.34
2022-08-25T01:32:17.322Z,98.97
2022-08-25T01:34:45.707Z,99.02
2022-08-25T01:37:14.866Z,99.17
2022-08-25T01:39:41.970Z,99.33
2022-08-25T01:42:27.244Z,99.30
2022-08-25T01:44:54.581Z,99.59
2022-08-25T01:47:21.114Z,99.38
2022-08-25T01:49:47.706Z,99.46
2022-08-25T01:52:44.543Z,99.72
2022-08-25T01:55:11.075Z,99.27
2022-08-25T01:57:37.991Z,99.38
2022-08-25T02:00:10.155Z,99.37
2022-08-25T02:02:36.733Z,99.12
2022-08-25T02:05:11.391Z,99.05
2022-08-25T02:07:40.691Z,99.14
2022-08-25T02:10:08.131Z,99.32
2022-08-25T02:12:36.099Z,98.98
2022-08-25T02:15:08.094Z,98.67
2022-08-25T02:17:36.811Z,98.88
2022-08-25T02:20:06.794Z,99.11
2022-08-25T02:22:33.460Z,99.16
2022-08-25T02:25:00.139Z,99.26
2022-08-25T02:27:26.893Z,99.08
2022-08-25T02:29:53.580Z,99.00
2022-08-25T02:32:20.071Z,98.94
2022-08-25T02:34:46.655Z,98.73
2022-08-25T02:37:14.155Z,98.75
2022-08-25T02:39:40.920Z,98.92
2022-08-25T02:42:07.507Z,98.65
2022-08-25T02:44:34.138Z,99.00
2022-08-25T02:47:00.976Z,99.45
2022-08-25T02:49:28.430Z,99.75
2022-08-25T02:51:54.955Z,99.59
2022-08-25T02:54:23.211Z,99.98
2022-08-25T02:56:50.026Z,100.00
2022-08-25T02:59:18.152Z,100.00
2022-08-25T03:01:45.271Z,100.00
2022-08-25T03:04:12.617Z,100.00
2022-08-25T03:06:39.727Z,100.00
2022-08-25T03:09:06.990Z,100.00
2022-08-25T03:11:33.966Z,100.00
2022-08-25T03:14:00.519Z,100.00
2022-08-25T03:16:28.147Z,100.00
2022-08-25T03:18:55.150Z,100.00
2022-08-25T03:21:22.635Z,100.00
2022-08-25T03:23:49.314Z,100.00
2022-08-25T03:26:34.591Z,100.00
2022-08-25T03:29:05.510Z,100.00
2022-08-25T03:31:34.651Z,100.00
2022-08-25T03:34:01.850Z,100.00
2022-08-25T03:36:28.870Z,100.00
2022-08-25T03:38:55.707Z,100.00
2022-08-25T03:41:29.089Z,100.00
2022-08-25T03:43:56.949Z,100.00
2022-08-25T03:46:32.492Z,100.00
2022-08-25T03:49:01.803Z,100.00
2022-08-25T03:51:31.941Z,100.00
2022-08-25T03:53:59.172Z,100.00
2022-08-25T03:56:27.400Z,100.00
2022-08-25T03:58:54.930Z,100.00
2022-08-25T04:01:21.897Z,100.00
2022-08-25T04:03:48.634Z,100.00
2022-08-25T04:06:17.452Z,100.00
2022-08-25T04:08:44.460Z,100.00
2022-08-25T04:11:17.679Z,100.00
2022-08-25T04:13:46.589Z,100.00
2022-08-25T04:16:16.781Z,100.00
2022-08-25T04:18:44.386Z,100.00
2022-08-25T04:21:11.985Z,100.00
2022-08-25T04:23:40.987Z,100.00
2022-08-25T04:26:16.494Z,100.00
2022-08-25T04:28:43.212Z,100.00
2022-08-25T04:31:11.907Z,100.00
2022-08-25T04:33:39.088Z,100.00
2022-08-25T04:36:11.910Z,100.00
2022-08-25T04:38:40.295Z,100.00
2022-08-25T04:41:10.588Z,100.00
2022-08-25T04:43:39.651Z,100.00
2022-08-25T04:46:08.594Z,100.00
2022-08-25T04:48:35.471Z,100.00
2022-08-25T04:51:06.858Z,100.00
2022-08-25T04:53:34.278Z,100.00
2022-08-25T04:56:03.846Z,100.00
2022-08-25T04:58:31.147Z,100.00
2022-08-25T05:01:15.611Z,100.00
2022-08-25T05:03:43.515Z,100.00
2022-08-25T05:06:13.974Z,100.00
2022-08-25T05:08:45.713Z,100.00
2022-08-25T05:11:14.932Z,100.00
2022-08-25T05:13:43.687Z,100.00
2022-08-25T05:16:18.235Z,100.00
2022-08-25T05:18:45.193Z,100.00
2022-08-25T05:21:16.381Z,100.00
2022-08-25T05:23:43.295Z,100.00
2022-08-25T05:26:19.092Z,100.00
2022-08-25T05:28:48.543Z,100.00
2022-08-25T05:31:15.990Z,100.00
2022-08-25T05:33:42.872Z,100.00
2022-08-25T05:36:11.815Z,100.00
2022-08-25T05:38:40.327Z,100.00
2022-08-25T05:41:10.607Z,100.00
2022-08-25T05:43:42.020Z,100.00
2022-08-25T05:46:09.170Z,100.00
2022-08-25T05:48:36.234Z,100.00
2022-08-25T05:51:05.263Z,100.00
2022-08-25T05:53:33.960Z,100.00
2022-08-25T05:56:01.450Z,100.00
2022-08-25T05:58:30.058Z,100.00
2022-08-25T06:00:58.426Z,100.00
2022-08-25T06:03:25.116Z,99.87
2022-08-25T06:05:51.675Z,99.87
2022-08-25T06:08:18.297Z,99.66
2022-08-25T06:10:44.936Z,98.84
2022-08-25T06:13:11.478Z,98.79
2022-08-25T06:15:38.935Z,98.79
2022-08-25T06:18:12.992Z,98.22
2022-08-25T06:20:46.787Z,97.85
2022-08-25T06:23:40.386Z,97.61
2022-08-25T06:26:07.572Z,97.33
2022-08-25T06:28:34.556Z,96.87
2022-08-25T06:31:02.256Z,96.37
2022-08-25T06:33:29.542Z,96.09
2022-08-25T06:35:57.127Z,96.35
2022-08-25T06:38:24.742Z,96.55
2022-08-25T06:40:52.656Z,95.69
2022-08-25T06:43:20.869Z,96.13
2022-08-25T06:45:48.581Z,96.24
2022-08-25T06:48:15.829Z,95.76
2022-08-25T06:50:43.480Z,95.37
2022-08-25T06:53:10.203Z,95.80
2022-08-25T06:55:36.908Z,94.22
2022-08-25T06:58:05.454Z,94.33
2022-08-25T07:00:32.980Z,93.97
2022-08-25T07:03:01.353Z,94.06
2022-08-25T07:05:42.633Z,94.28
2022-08-25T07:08:11.992Z,93.80
2022-08-25T07:10:39.142Z,93.98
2022-08-25T07:13:46.807Z,94.02
2022-08-25T07:19:05.848Z,92.42
2022-08-25T07:21:38.596Z,92.17
2022-08-25T07:24:09.257Z,92.87
2022-08-25T07:26:38.434Z,92.84
2022-08-25T07:29:15.801Z,91.89
2022-08-25T07:31:42.621Z,92.00
2022-08-25T07:34:29.008Z,92.92
2022-08-25T07:36:56.999Z,92.70
2022-08-25T07:39:25.454Z,91.85
2022-08-25T07:41:53.307Z,91.49
2022-08-25T07:44:21.643Z,91.32
2022-08-25T07:46:50.580Z,92.39
2022-08-25T07:49:23.457Z,91.89
2022-08-25T07:52:04.544Z,91.04
2022-08-25T07:54:34.201Z,91.14
2022-08-25T07:57:02.536Z,90.19
2022-08-25T07:59:29.263Z,89.82
2022-08-25T08:01:56.196Z,90.31
2022-08-25T08:04:22.844Z,88.96
2022-08-25T08:06:49.408Z,88.31
2022-08-25T08:09:16.334Z,89.23
2022-08-25T08:11:53.623Z,89.97
2022-08-25T08:14:20.912Z,88.84
2022-08-25T08:16:47.618Z,89.24
2022-08-25T08:19:14.147Z,89.48
2022-08-25T08:21:41.647Z,90.99
2022-08-25T08:24:19.781Z,89.62
2022-08-25T08:26:58.991Z,88.64
2022-08-25T08:29:26.005Z,88.60
2022-08-25T08:32:23.817Z,88.11
2022-08-25T08:34:58.308Z,86.85
2022-08-25T08:37:25.195Z,86.72
2022-08-25T08:39:53.210Z,85.51
2022-08-25T08:42:25.683Z,85.46
2022-08-25T08:45:09.503Z,85.04
2022-08-25T08:47:57.567Z,84.44
2022-08-25T08:50:33.183Z,83.29
2022-08-25T08:53:22.515Z,82.92
2022-08-25T08:55:57.573Z,84.27
2022-08-25T08:58:30.252Z,83.28
2022-08-25T09:00:58.636Z,81.67
2022-08-25T09:03:42.182Z,80.44
2022-08-25T09:06:13.239Z,80.37
2022-08-25T09:08:44.886Z,80.50
2022-08-25T09:11:18.800Z,80.99
2022-08-25T09:14:42.858Z,81.60
2022-08-25T09:17:25.557Z,80.29
2022-08-25T09:20:18.401Z,79.05
2022-08-25T09:23:27.915Z,77.43
2022-08-25T09:26:00.523Z,78.52
2022-08-25T09:28:39.814Z,81.52
2022-08-25T09:31:19.507Z,81.74
2022-08-25T09:33:46.136Z,80.51
2022-08-25T09:36:13.435Z,80.78
2022-08-25T09:38:40.436Z,80.92
2022-08-25T09:41:08.582Z,80.22
2022-08-25T09:43:44.654Z,79.97
2022-08-25T09:46:29.396Z,80.19
2022-08-25T09:48:59.401Z,79.76
2022-08-25T09:51:38.080Z,79.53
2022-08-25T09:54:12.418Z,79.29
2022-08-25T09:56:51.228Z,79.26
2022-08-25T09:59:34.246Z,76.80
2022-08-25T10:02:20.952Z,77.49
2022-08-25T10:04:47.607Z,76.89
2022-08-25T10:07:34.094Z,77.24
2022-08-25T10:10:04.732Z,79.33
2022-08-25T10:12:43.114Z,75.95
2022-08-25T10:15:33.575Z,75.34
2022-08-25T10:18:15.765Z,73.91
2022-08-25T10:20:44.781Z,74.38
2022-08-25T10:23:19.018Z,74.77
2022-08-25T10:25:58.014Z,75.99
2022-08-25T10:28:42.044Z,76.97
2022-08-25T10:31:23.118Z,75.96
2022-08-25T10:33:55.969Z,75.87
2022-08-25T10:36:41.319Z,75.32
2022-08-25T10:39:40.780Z,74.08
2022-08-25T10:42:13.387Z,72.50
2022-08-25T10:45:19.507Z,73.49
2022-08-25T10:48:03.039Z,73.93
2022-08-25T10:50:45.489Z,70.28
2022-08-25T10:53:23.179Z,70.68
2022-08-25T10:56:00.396Z,70.24
2022-08-25T10:58:59.787Z,69.26
2022-08-25T11:01:45.549Z,70.02
2022-08-25T11:04:21.880Z,69.83
2022-08-25T11:07:10.641Z,69.76
2022-08-25T11:09:44.234Z,67.32
2022-08-25T11:12:39.260Z,69.04
2022-08-25T11:15:19.932Z,70.09
2022-08-25T11:17:54.004Z,67.36
2022-08-25T11:20:28.411Z,66.73
2022-08-25T11:23:14.863Z,65.67
2022-08-25T11:25:46.379Z,66.40
2022-08-25T11:28:22.373Z,64.92
2022-08-25T11:30:51.236Z,66.57
2022-08-25T11:33:19.990Z,64.50
2022-08-25T11:35:55.582Z,64.89
2022-08-25T11:38:52.243Z,66.29
2022-08-25T11:42:05.830Z,64.14
2022-08-25T11:44:53.460Z,63.29
2022-08-25T11:47:49.969Z,63.35
2022-08-25T11:50:37.495Z,62.39
2022-08-25T11:53:23.620Z,61.39
2022-08-25T11:55:56.431Z,60.89
2022-08-25T11:58:38.782Z,61.79
2022-08-25T12:01:31.566Z,60.04
2022-08-25T12:04:33.554Z,60.95
2022-08-25T12:07:06.170Z,61.76
2022-08-25T12:09:54.588Z,61.08
2022-08-25T12:12:56.804Z,61.04
2022-08-25T12:15:34.814Z,60.62
2022-08-25T12:18:13.718Z,60.45
2022-08-25T12:20:53.750Z,58.52
2022-08-25T12:23:47.104Z,57.03
2022-08-25T12:29:21.916Z,56.02
2022-08-25T12:32:04.931Z,55.49
2022-08-25T12:34:34.422Z,55.82
2022-08-25T12:37:19.363Z,56.61
2022-08-25T12:39:50.348Z,59.09
2022-08-25T12:42:26.217Z,59.21
2022-08-25T12:45:20.714Z,60.13
2022-08-25T12:47:49.603Z,58.58
2022-08-25T12:50:32.685Z,58.55
2022-08-25T12:53:19.199Z,60.21
2022-08-25T12:55:52.442Z,57.77
2022-08-25T12:58:19.173Z,56.74
2022-08-25T13:01:09.457Z,55.42
2022-08-25T13:04:23.819Z,55.28
2022-08-25T13:07:15.515Z,56.35
2022-08-25T13:10:38.806Z,54.67
2022-08-25T13:13:39.086Z,54.24
2022-08-25T13:16:15.642Z,55.32
2022-08-25T13:18:42.647Z,53.92
2022-08-25T13:21:29.695Z,54.01
2022-08-25T13:24:05.139Z,53.49
2022-08-25T13:26:37.543Z,53.58
2022-08-25T13:29:17.852Z,53.18
2022-08-25T13:32:02.233Z,52.09
2022-08-25T13:34:39.195Z,54.37
2022-08-25T13:37:31.492Z,53.78
2022-08-25T13:40:19.927Z,54.64
2022-08-25T13:42:57.584Z,54.24
2022-08-25T13:45:28.410Z,54.34
2022-08-25T13:47:56.879Z,53.76
2022-08-25T13:50:27.165Z,52.02
2022-08-25T13:53:04.566Z,53.32
2022-08-25T13:55:51.217Z,52.37
2022-08-25T13:58:38.832Z,53.12
2022-08-25T14:01:48.736Z,51.53
2022-08-25T14:04:32.552Z,51.00
2022-08-25T14:07:26.456Z,51.72
2022-08-25T14:09:58.370Z,50.26
2022-08-25T14:12:45.162Z,48.19
2022-08-25T14:15:29.472Z,48.79
2022-08-25T14:18:14.048Z,48.60
2022-08-25T14:20:47.705Z,49.39
2022-08-25T14:23:27.444Z,49.57
2022-08-25T14:25:56.662Z,49.64
2022-08-25T14:28:26.463Z,49.64
2022-08-25T14:30:56.210Z,50.74
2022-08-25T14:33:28.283Z,51.54
2022-08-25T14:35:57.914Z,53.29
2022-08-25T14:38:24.754Z,55.34
2022-08-25T14:40:53.027Z,54.44
2022-08-25T14:43:23.681Z,52.89
2022-08-25T14:45:51.414Z,53.56
2022-08-25T14:48:35.286Z,53.39
2022-08-25T14:51:03.694Z,52.37
2022-08-25T14:53:30.221Z,52.83
2022-08-25T14:55:58.970Z,52.44
2022-08-25T14:58:27.275Z,51.07
2022-08-25T15:00:55.249Z,50.36
2022-08-25T15:03:30.373Z,51.28
2022-08-25T15:06:00.064Z,48.92
2022-08-25T15:08:45.395Z,47.35
2022-08-25T15:11:13.392Z,47.83
2022-08-25T15:13:40.391Z,46.47
2022-08-25T15:16:08.741Z,46.17
2022-08-25T15:18:36.557Z,45.23
2022-08-25T15:21:03.389Z,45.10
2022-08-25T15:23:30.014Z,43.92
2022-08-25T15:25:56.917Z,43.34
2022-08-25T15:28:24.586Z,40.69
2022-08-25T15:30:53.339Z,40.19
2022-08-25T15:33:20.008Z,37.89
2022-08-25T15:35:50.007Z,37.00
2022-08-25T15:38:16.767Z,37.09
2022-08-25T15:40:43.273Z,36.87
2022-08-25T15:43:10.143Z,37.51
2022-08-25T15:45:37.068Z,37.54
2022-08-25T15:48:06.897Z,38.06
2022-08-25T15:50:36.615Z,37.58
2022-08-25T15:53:03.377Z,38.01
2022-08-25T15:55:30.355Z,37.28
2022-08-25T15:58:00.403Z,38.36
2022-08-25T16:00:26.881Z,38.95
2022-08-25T16:03:15.015Z,40.96
2022-08-25T16:05:48.023Z,43.89
2022-08-25T16:08:19.352Z,46.54
2022-08-25T16:10:51.897Z,49.35
2022-08-25T16:13:21.005Z,50.96
2022-08-25T16:15:53.159Z,51.90
2022-08-25T16:18:22.771Z,53.51
2022-08-25T16:20:50.016Z,54.70
2022-08-25T16:23:18.031Z,55.65
2022-08-25T16:25:46.453Z,56.64
2022-08-25T16:28:15.271Z,56.73
2022-08-25T16:30:50.252Z,56.35
2022-08-25T16:33:20.412Z,57.18
2022-08-25T16:35:47.485Z,58.83
2022-08-25T16:38:15.951Z,59.06
2022-08-25T16:40:43.284Z,59.84
2022-08-25T16:43:10.493Z,58.40
2022-08-25T16:45:37.271Z,59.35
2022-08-25T16:48:05.939Z,58.99
2022-08-25T16:50:34.609Z,60.52
2022-08-25T16:53:23.811Z,60.00
2022-08-25T16:56:00.470Z,60.35
2022-08-25T16:58:27.121Z,60.99
2022-08-25T17:01:04.333Z,60.86
2022-08-25T17:03:34.529Z,60.21
2022-08-25T17:06:01.280Z,59.21
2022-08-25T17:08:31.038Z,59.62
2022-08-25T17:11:14.526Z,60.02
2022-08-25T17:13:47.717Z,60.59
2022-08-25T17:16:16.775Z,60.63
2022-08-25T17:18:43.675Z,62.12
2022-08-25T17:21:21.995Z,59.78
2022-08-25T17:23:51.526Z,60.14
2022-08-25T17:26:18.463Z,60.49
2022-08-25T17:28:46.476Z,61.52
2022-08-25T17:31:14.682Z,61.04
2022-08-25T17:33:41.856Z,62.96
2022-08-25T17:36:08.938Z,62.61
2022-08-25T17:38:36.777Z,61.80
2022-08-25T17:41:07.059Z,62.03
2022-08-25T17:43:36.392Z,61.44
2022-08-25T17:46:05.445Z,62.84
2022-08-25T17:48:33.539Z,62.59
2022-08-25T17:51:01.105Z,62.70
2022-08-25T17:53:28.144Z,63.15
2022-08-25T17:56:07.324Z,63.40
2022-08-25T17:58:35.038Z,63.37
2022-08-25T18:01:02.049Z,63.96
2022-08-25T18:03:29.301Z,64.07
2022-08-25T18:05:55.992Z,63.74
2022-08-25T18:08:32.327Z,64.04
2022-08-25T18:11:03.590Z,65.02
2022-08-25T18:13:31.556Z,65.07
2022-08-25T18:15:58.703Z,65.13
2022-08-25T18:18:25.531Z,65.96
2022-08-25T18:20:52.594Z,66.49
2022-08-25T18:23:19.805Z,66.34
2022-08-25T18:25:49.181Z,66.69
2022-08-25T18:28:16.093Z,66.69
2022-08-25T18:30:43.324Z,67.12
2022-08-25T18:33:10.852Z,67.61
2022-08-25T18:35:38.432Z,67.67
2022-08-25T18:38:24.880Z,67.79
2022-08-25T18:40:58.962Z,69.00
2022-08-25T18:43:25.750Z,69.37
2022-08-25T18:45:52.422Z,69.39
2022-08-25T18:48:20.629Z,69.75
2022-08-25T18:50:50.597Z,70.08
2022-08-25T18:53:19.195Z,70.74
2022-08-25T18:55:58.102Z,70.78
2022-08-25T18:58:26.156Z,71.35
2022-08-25T19:00:53.237Z,71.72
2022-08-25T19:03:23.286Z,71.74
2022-08-25T19:05:57.360Z,72.64
2022-08-25T19:08:24.659Z,72.54
2022-08-25T19:10:53.806Z,72.77
2022-08-25T19:13:22.493Z,72.99
2022-08-25T19:15:50.897Z,73.45
2022-08-25T19:18:19.279Z,73.29
2022-08-25T19:20:59.072Z,73.78
2022-08-25T19:23:26.009Z,74.14
2022-08-25T19:25:52.539Z,74.34
2022-08-25T19:28:19.711Z,74.61
2022-08-25T19:30:50.401Z,75.03
2022-08-25T19:33:43.823Z,75.47
2022-08-25T19:36:08.838Z,75.79
2022-08-25T19:38:37.005Z,75.96
2022-08-25T19:41:09.050Z,76.41
2022-08-25T19:43:55.212Z,76.46
2022-08-25T19:46:32.294Z,76.55
2022-08-25T19:49:08.423Z,77.04
2022-08-25T19:51:44.241Z,77.10
2022-08-25T19:54:14.794Z,77.36
2022-08-25T19:56:44.018Z,77.49
2022-08-25T19:59:34.410Z,77.47
2022-08-25T20:02:15.905Z,77.72
2022-08-25T20:04:49.349Z,77.56
2022-08-25T20:07:22.809Z,78.50
2022-08-25T20:09:52.444Z,78.84
2022-08-25T20:12:20.451Z,78.42
2022-08-25T20:14:48.167Z,78.52
2022-08-25T20:17:23.701Z,79.00
2022-08-25T20:19:57.152Z,79.13
2022-08-25T20:22:26.941Z,78.91
2022-08-25T20:24:57.816Z,79.24
2022-08-25T20:27:38.087Z,79.47
2022-08-25T20:30:08.447Z,79.76
2022-08-25T20:32:35.673Z,80.02
2022-08-25T20:35:04.968Z,79.96
2022-08-25T20:37:36.319Z,80.21
2022-08-25T20:40:03.941Z,80.13
2022-08-25T20:42:31.062Z,80.29
2022-08-25T20:44:57.751Z,80.65
2022-08-25T20:47:24.417Z,80.35
2022-08-25T20:49:51.165Z,80.69
2022-08-25T20:52:19.495Z,81.26
2022-08-25T20:54:47.007Z,81.16
2022-08-25T20:57:17.546Z,81.77
2022-08-25T20:59:44.034Z,81.74
2022-08-25T21:02:10.613Z,82.22
2022-08-25T21:04:39.333Z,82.42
2022-08-25T21:07:15.756Z,82.92
2022-08-25T21:09:42.507Z,83.13
2022-08-25T21:12:09.524Z,82.97
2022-08-25T21:14:40.791Z,83.04
2022-08-25T21:17:10.611Z,83.42
2022-08-25T21:19:38.842Z,83.29
2022-08-25T21:22:06.628Z,83.09
2022-08-25T21:24:33.399Z,83.16
2022-08-25T21:27:00.109Z,83.38
2022-08-25T21:29:32.653Z,83.85
2022-08-25T21:31:59.683Z,84.06
2022-08-25T21:34:28.874Z,84.05
2022-08-25T21:36:58.116Z,83.84
2022-08-25T21:39:32.378Z,84.14
2022-08-25T21:42:00.194Z,84.20
2022-08-25T21:44:27.471Z,83.72
2022-08-25T21:46:54.801Z,83.72
2022-08-25T21:49:23.373Z,83.64
2022-08-25T21:51:59.184Z,83.72
2022-08-25T21:54:26.654Z,83.72
2022-08-25T21:56:59.582Z,83.70
2022-08-25T21:59:30.080Z,83.68
2022-08-25T22:02:02.826Z,83.54
2022-08-25T22:04:30.650Z,83.92
2022-08-25T22:06:58.081Z,83.52
2022-08-25T22:09:25.911Z,83.40
2022-08-25T22:11:55.634Z,83.53
2022-08-25T22:14:23.782Z,82.99
2022-08-25T22:16:52.015Z,82.89
2022-08-25T22:19:18.875Z,82.93
2022-08-25T22:21:45.977Z,83.02
2022-08-25T22:24:12.791Z,83.06
2022-08-25T22:26:40.533Z,83.33
2022-08-25T22:29:07.985Z,83.46
2022-08-25T22:31:36.439Z,83.67
2022-08-25T22:34:04.539Z,83.30
2022-08-25T22:36:36.874Z,83.69
2022-08-25T22:39:05.772Z,83.12
2022-08-25T22:41:33.196Z,83.38
2022-08-25T22:44:00.449Z,83.44
2022-08-25T22:46:33.625Z,84.12
2022-08-25T22:49:02.319Z,84.22
2022-08-25T22:51:32.725Z,84.95
2022-08-25T22:54:01.552Z,85.15
2022-08-25T22:56:35.634Z,85.10
2022-08-25T22:59:08.923Z,85.15
2022-08-25T23:01:35.815Z,85.63
2022-08-25T23:04:03.344Z,85.20
2022-08-25T23:06:30.751Z,85.37
2022-08-25T23:08:58.714Z,85.15
2022-08-25T23:11:26.224Z,85.54
2022-08-25T23:13:57.391Z,85.67
2022-08-25T23:16:24.402Z,85.88
2022-08-25T23:18:51.960Z,85.78
2022-08-25T23:21:40.840Z,85.57
2022-08-25T23:24:08.969Z,86.05
2022-08-25T23:26:41.926Z,85.69
2022-08-25T23:29:18.063Z,85.55
2022-08-25T23:31:46.554Z,86.00
2022-08-25T23:34:14.499Z,85.93
2022-08-25T23:36:41.220Z,86.22
2022-08-25T23:40:04.378Z,86.09
2022-08-25T23:42:41.243Z,86.27
2022-08-25T23:45:09.396Z,86.32
2022-08-25T23:47:37.767Z,86.36
2022-08-25T23:50:04.491Z,86.29
2022-08-25T23:52:31.296Z,86.67
2022-08-25T23:54:58.171Z,86.88
2022-08-25T23:57:24.774Z,87.09
2022-08-25T23:59:51.703Z,87.00
